createdAt,value
2016-11-24T00:00:24.309Z,0
2016-11-24T00:01:05.997Z,0
2016-11-24T00:03:26.635Z,0
2016-11-24T00:04:08.359Z,0
2016-11-24T00:04:49.910Z,0
2016-11-24T00:05:31.526Z,0
2016-11-24T00:06:13.044Z,0
2016-11-24T00:06:54.818Z,0
2016-11-24T00:07:36.469Z,0
2016-11-24T00:08:18.059Z,0
2016-11-24T00:08:59.703Z,0
2016-11-24T00:09:41.325Z,0
2016-11-24T00:10:23.058Z,0
2016-11-24T00:11:04.682Z,0
2016-11-24T00:11:46.268Z,0
2016-11-24T00:12:27.777Z,0
2016-11-24T00:13:09.624Z,0
2016-11-24T00:15:46.217Z,0
2016-11-24T00:16:27.906Z,0
2016-11-24T00:17:09.727Z,0
2016-11-24T00:17:51.293Z,0
2016-11-24T00:20:27.788Z,0
2016-11-24T00:21:09.461Z,0
2016-11-24T00:21:51.149Z,0
2016-11-24T00:22:32.852Z,0
2016-11-24T00:23:14.536Z,0
2016-11-24T00:23:56.181Z,0
2016-11-24T00:26:27.236Z,0
2016-11-24T00:27:08.864Z,0
2016-11-24T00:27:50.568Z,0
2016-11-24T00:28:32.399Z,0
2016-11-24T00:29:14.066Z,0
2016-11-24T00:29:55.781Z,0
2016-11-24T00:32:32.275Z,0
2016-11-24T00:33:13.825Z,0
2016-11-24T00:33:55.603Z,0
2016-11-24T00:34:37.337Z,0
2016-11-24T00:35:19.027Z,0
2016-11-24T00:36:00.761Z,0
2016-11-24T00:38:42.549Z,0
2016-11-24T00:39:24.310Z,0
2016-11-24T00:40:05.881Z,0
2016-11-24T00:42:42.296Z,0
2016-11-24T00:43:23.972Z,0
2016-11-24T00:44:05.665Z,0
2016-11-24T00:44:47.301Z,0
2016-11-24T00:45:28.986Z,0
2016-11-24T00:46:10.645Z,0
2016-11-24T00:46:52.365Z,0
2016-11-24T00:47:34.103Z,0
2016-11-24T00:48:15.841Z,0
2016-11-24T00:48:57.581Z,0
2016-11-24T00:49:39.306Z,0
2016-11-24T00:50:20.947Z,0
2016-11-24T00:54:36.428Z,0
2016-11-24T00:55:18.114Z,0
2016-11-24T00:55:59.880Z,0
2016-11-24T00:56:41.555Z,0
2016-11-24T00:57:23.287Z,0
2016-11-24T00:58:04.968Z,0
2016-11-24T00:58:46.549Z,0
2016-11-24T00:59:28.166Z,0
2016-11-24T01:00:09.713Z,0
2016-11-24T01:00:51.289Z,0
2016-11-24T01:01:32.851Z,0
2016-11-24T01:02:14.597Z,0
2016-11-24T01:02:56.201Z,0
2016-11-24T01:03:37.897Z,0
2016-11-24T01:04:19.612Z,0
2016-11-24T01:05:01.426Z,0
2016-11-24T01:05:43.015Z,0
2016-11-24T01:06:24.687Z,0
2016-11-24T01:07:06.302Z,0
2016-11-24T01:09:26.926Z,0
2016-11-24T01:10:08.697Z,0
2016-11-24T01:10:50.230Z,0
2016-11-24T01:13:21.118Z,0
2016-11-24T01:15:36.451Z,0
2016-11-24T01:16:18.056Z,0
2016-11-24T01:16:59.706Z,0
2016-11-24T01:17:41.384Z,0
2016-11-24T01:18:22.939Z,0
2016-11-24T01:20:54.012Z,0
2016-11-24T01:21:35.755Z,0
2016-11-24T01:22:17.470Z,0
2016-11-24T01:26:38.309Z,0
2016-11-24T01:27:20.060Z,0
2016-11-24T01:28:01.775Z,0
2016-11-24T01:32:32.765Z,0
2016-11-24T01:33:14.518Z,0
2016-11-24T01:33:56.175Z,0
2016-11-24T01:34:38.001Z,0
2016-11-24T01:37:09.155Z,0
2016-11-24T01:37:50.864Z,0
2016-11-24T01:38:32.585Z,0
2016-11-24T01:39:14.191Z,0
2016-11-24T01:39:55.812Z,0
2016-11-24T01:40:37.510Z,0
2016-11-24T01:43:13.944Z,0
2016-11-24T01:43:55.712Z,0
2016-11-24T01:44:37.446Z,0
2016-11-24T01:45:19.060Z,0
2016-11-24T01:47:34.358Z,0
2016-11-24T01:48:16.070Z,0
2016-11-24T01:48:57.633Z,0
2016-11-24T01:49:39.404Z,0
2016-11-24T01:52:15.738Z,0
2016-11-24T01:52:57.427Z,0
2016-11-24T01:53:39.093Z,0
2016-11-24T01:54:20.809Z,0
2016-11-24T01:55:02.479Z,0
2016-11-24T01:55:44.180Z,0
2016-11-24T01:56:25.951Z,0
2016-11-24T01:58:57.012Z,0
2016-11-24T01:59:37.852Z,0
2016-11-24T02:00:18.393Z,0
2016-11-24T02:00:58.934Z,0
2016-11-24T02:01:39.477Z,0
2016-11-24T02:02:20.012Z,0
2016-11-24T02:03:00.550Z,0
2016-11-24T02:03:41.091Z,0
2016-11-24T02:04:21.628Z,0
2016-11-24T02:05:02.170Z,0
2016-11-24T02:05:42.709Z,0
2016-11-24T02:06:23.246Z,0
2016-11-24T02:07:03.781Z,0
2016-11-24T02:07:44.319Z,0
2016-11-24T02:08:24.854Z,0
2016-11-24T02:09:05.391Z,0
2016-11-24T02:09:45.924Z,0
2016-11-24T02:10:26.452Z,0
2016-11-24T02:11:06.991Z,0
2016-11-24T02:11:47.524Z,0
2016-11-24T02:12:28.058Z,0
2016-11-24T02:13:08.601Z,0
2016-11-24T02:13:49.148Z,0
2016-11-24T02:14:29.670Z,0
2016-11-24T02:15:10.207Z,0
2016-11-24T02:15:50.743Z,0
2016-11-24T02:16:31.275Z,0
2016-11-24T02:17:11.811Z,0
2016-11-24T02:17:52.355Z,0
2016-11-24T02:18:32.889Z,0
2016-11-24T02:19:13.423Z,0
2016-11-24T02:19:53.959Z,0
2016-11-24T02:20:34.499Z,0
2016-11-24T02:21:15.038Z,0
2016-11-24T02:21:55.576Z,0
2016-11-24T02:22:36.113Z,0
2016-11-24T02:23:16.647Z,0
2016-11-24T02:23:57.184Z,0
2016-11-24T02:24:37.728Z,0
2016-11-24T02:25:18.263Z,0
2016-11-24T02:25:58.800Z,0
2016-11-24T02:26:39.338Z,0
2016-11-24T02:27:19.880Z,0
2016-11-24T02:28:00.411Z,0
2016-11-24T02:28:40.945Z,0
2016-11-24T02:29:21.487Z,0
2016-11-24T02:30:02.026Z,0
2016-11-24T02:30:42.566Z,0
2016-11-24T02:31:23.105Z,0
2016-11-24T02:32:03.640Z,0
2016-11-24T02:32:44.186Z,0
2016-11-24T02:33:24.724Z,0
2016-11-24T02:34:05.265Z,0
2016-11-24T02:34:45.805Z,0
2016-11-24T02:35:26.340Z,0
2016-11-24T02:36:06.875Z,0
2016-11-24T02:36:47.413Z,0
2016-11-24T02:37:27.952Z,0
2016-11-24T02:38:08.489Z,0
2016-11-24T02:38:49.030Z,0
2016-11-24T02:39:29.573Z,0
2016-11-24T02:40:10.110Z,0
2016-11-24T02:40:50.647Z,0
2016-11-24T02:41:31.179Z,0
2016-11-24T02:42:11.719Z,0
2016-11-24T02:42:52.257Z,0
2016-11-24T02:43:32.796Z,0
2016-11-24T02:44:13.333Z,0
2016-11-24T02:44:53.878Z,0
2016-11-24T02:47:23.381Z,0
2016-11-24T02:48:03.920Z,0
2016-11-24T02:48:44.458Z,0
2016-11-24T02:49:24.991Z,0
2016-11-24T02:50:05.529Z,0
2016-11-24T02:50:46.069Z,0
2016-11-24T02:51:26.606Z,0
2016-11-24T02:52:07.142Z,0
2016-11-24T02:52:47.684Z,0
2016-11-24T02:53:28.223Z,0
2016-11-24T02:54:08.762Z,0
2016-11-24T02:54:49.298Z,0
2016-11-24T02:55:29.833Z,0
2016-11-24T02:56:10.370Z,0
2016-11-24T02:56:50.908Z,0
2016-11-24T02:57:31.447Z,0
2016-11-24T02:58:11.987Z,0
2016-11-24T02:58:52.526Z,0
2016-11-24T02:59:33.083Z,0
2016-11-24T03:00:13.618Z,0
2016-11-24T03:00:54.163Z,0
2016-11-24T03:01:34.701Z,0
2016-11-24T03:02:15.237Z,0
2016-11-24T03:02:55.776Z,0
2016-11-24T03:03:36.315Z,0
2016-11-24T03:04:16.852Z,0
2016-11-24T03:04:57.394Z,0
2016-11-24T03:05:37.933Z,0
2016-11-24T03:06:18.464Z,0
2016-11-24T03:06:59.004Z,0
2016-11-24T03:07:39.543Z,0
2016-11-24T03:08:20.077Z,0
2016-11-24T03:09:00.620Z,0
2016-11-24T03:09:41.158Z,0
2016-11-24T03:10:21.712Z,0
2016-11-24T03:11:02.233Z,0
2016-11-24T03:11:42.769Z,0
2016-11-24T03:12:23.307Z,0
2016-11-24T03:13:03.847Z,0
2016-11-24T03:13:44.386Z,0
2016-11-24T03:14:24.927Z,0
2016-11-24T03:15:05.462Z,0
2016-11-24T03:15:46.003Z,0
2016-11-24T03:16:26.546Z,0
2016-11-24T03:17:07.083Z,0
2016-11-24T03:17:47.615Z,0
2016-11-24T03:18:28.155Z,0
2016-11-24T03:19:08.687Z,0
2016-11-24T03:19:49.228Z,0
2016-11-24T03:20:29.765Z,0
2016-11-24T03:21:10.311Z,0
2016-11-24T03:21:50.854Z,0
2016-11-24T03:22:31.389Z,0
2016-11-24T03:23:11.928Z,0
2016-11-24T03:23:52.468Z,0
2016-11-24T03:24:33.005Z,0
2016-11-24T03:25:13.546Z,0
2016-11-24T03:25:54.076Z,0
2016-11-24T03:26:34.613Z,0
2016-11-24T03:27:15.151Z,0
2016-11-24T03:27:55.692Z,0
2016-11-24T03:28:36.233Z,0
2016-11-24T03:29:16.768Z,0
2016-11-24T03:29:57.301Z,0
2016-11-24T03:30:37.842Z,0
2016-11-24T03:31:18.381Z,0
2016-11-24T03:31:58.922Z,0
2016-11-24T03:32:39.459Z,0
2016-11-24T03:33:19.989Z,0
2016-11-24T03:34:00.524Z,0
2016-11-24T03:34:41.064Z,0
2016-11-24T03:35:21.602Z,0
2016-11-24T03:36:02.144Z,0
2016-11-24T03:36:42.681Z,0
2016-11-24T03:37:23.220Z,0
2016-11-24T03:38:03.763Z,0
2016-11-24T03:38:44.302Z,0
2016-11-24T03:39:24.846Z,0
2016-11-24T03:40:05.382Z,0
2016-11-24T03:40:45.923Z,0
2016-11-24T03:41:26.461Z,0
2016-11-24T03:42:07.002Z,0
2016-11-24T03:42:47.543Z,0
2016-11-24T03:43:28.088Z,0
2016-11-24T03:44:08.630Z,0
2016-11-24T03:44:49.172Z,0
2016-11-24T03:45:29.708Z,0
2016-11-24T03:46:10.247Z,0
2016-11-24T03:46:50.787Z,0
2016-11-24T03:47:31.327Z,0
2016-11-24T03:48:11.867Z,0
2016-11-24T03:48:52.410Z,0
2016-11-24T03:49:32.943Z,0
2016-11-24T03:50:13.486Z,0
2016-11-24T03:50:54.022Z,0
2016-11-24T03:51:34.563Z,0
2016-11-24T03:52:15.095Z,0
2016-11-24T03:52:55.635Z,0
2016-11-24T03:53:36.175Z,0
2016-11-24T03:54:16.712Z,0
2016-11-24T03:54:57.248Z,0
2016-11-24T03:55:37.790Z,0
2016-11-24T03:56:18.326Z,0
2016-11-24T03:56:58.868Z,0
2016-11-24T03:57:39.409Z,0
2016-11-24T03:58:19.940Z,0
2016-11-24T03:59:00.478Z,0
2016-11-24T03:59:41.025Z,0
2016-11-24T04:00:21.564Z,0
2016-11-24T04:01:02.101Z,0
2016-11-24T04:01:42.643Z,0
2016-11-24T04:02:23.167Z,0
2016-11-24T04:03:03.704Z,0
2016-11-24T04:03:44.241Z,0
2016-11-24T04:04:24.775Z,0
2016-11-24T04:05:05.320Z,0
2016-11-24T04:05:45.857Z,0
2016-11-24T04:06:26.399Z,0
2016-11-24T04:07:06.937Z,0
2016-11-24T04:07:47.479Z,0
2016-11-24T04:08:28.009Z,0
2016-11-24T04:09:08.546Z,0
2016-11-24T04:09:49.086Z,0
2016-11-24T04:10:29.648Z,0
2016-11-24T04:11:10.163Z,0
2016-11-24T04:11:50.705Z,0
2016-11-24T04:12:31.240Z,0
2016-11-24T04:13:11.780Z,0
2016-11-24T04:13:52.313Z,0
2016-11-24T04:14:32.843Z,0
2016-11-24T04:15:13.378Z,0
2016-11-24T04:15:53.915Z,0
2016-11-24T04:16:34.460Z,0
2016-11-24T04:17:14.994Z,0
2016-11-24T04:17:55.539Z,0
2016-11-24T04:18:36.066Z,0
2016-11-24T04:19:16.607Z,0
2016-11-24T04:19:57.144Z,0
2016-11-24T04:20:37.682Z,0
2016-11-24T04:21:18.219Z,0
2016-11-24T04:21:58.759Z,0
2016-11-24T04:22:39.298Z,0
2016-11-24T04:23:19.840Z,0
2016-11-24T04:24:00.368Z,0
2016-11-24T04:24:40.904Z,0
2016-11-24T04:25:21.448Z,0
2016-11-24T04:26:01.988Z,0
2016-11-24T04:26:42.524Z,0
2016-11-24T04:27:23.067Z,0
2016-11-24T04:28:03.602Z,0
2016-11-24T04:28:44.142Z,0
2016-11-24T04:29:24.709Z,0
2016-11-24T04:30:05.255Z,0
2016-11-24T04:30:45.795Z,0
2016-11-24T04:31:26.330Z,0
2016-11-24T04:32:06.870Z,0
2016-11-24T04:32:47.415Z,0
2016-11-24T04:33:27.957Z,0
2016-11-24T04:34:08.496Z,0
2016-11-24T04:34:49.033Z,0
2016-11-24T04:35:29.574Z,0
2016-11-24T04:36:10.113Z,0
2016-11-24T04:36:50.653Z,0
2016-11-24T04:37:31.192Z,0
2016-11-24T04:38:11.733Z,0
2016-11-24T04:38:52.272Z,0
2016-11-24T04:39:32.940Z,0
2016-11-24T04:40:13.921Z,0
2016-11-24T04:40:54.467Z,0
2016-11-24T04:41:35.001Z,0
2016-11-24T04:42:15.705Z,0
2016-11-24T04:42:56.217Z,0
2016-11-24T04:43:36.753Z,0
2016-11-24T04:44:17.294Z,0
2016-11-24T04:44:57.932Z,0
2016-11-24T04:45:38.463Z,0
2016-11-24T04:46:18.998Z,0
2016-11-24T04:46:59.544Z,0
2016-11-24T04:47:40.088Z,0
2016-11-24T04:48:20.624Z,0
2016-11-24T04:49:01.159Z,0
2016-11-24T04:49:41.688Z,0
2016-11-24T04:50:22.227Z,0
2016-11-24T04:51:03.014Z,0
2016-11-24T04:51:43.555Z,0
2016-11-24T04:52:24.095Z,0
2016-11-24T04:53:04.818Z,0
2016-11-24T04:53:45.357Z,0
2016-11-24T04:54:25.905Z,0
2016-11-24T04:55:06.445Z,0
2016-11-24T04:55:46.978Z,0
2016-11-24T04:56:27.518Z,0
2016-11-24T04:57:08.054Z,0
2016-11-24T04:57:48.601Z,0
2016-11-24T04:58:29.147Z,0
2016-11-24T04:59:09.682Z,0
2016-11-24T04:59:50.263Z,0
2016-11-24T05:00:30.798Z,0
2016-11-24T05:01:11.336Z,0
2016-11-24T05:01:51.882Z,0
2016-11-24T05:02:32.428Z,0
2016-11-24T05:03:12.963Z,0
2016-11-24T05:03:53.503Z,0
2016-11-24T05:04:34.044Z,0
2016-11-24T05:05:14.580Z,0
2016-11-24T05:05:55.122Z,0
2016-11-24T05:06:35.667Z,0
2016-11-24T05:07:16.180Z,0
2016-11-24T05:07:56.738Z,0
2016-11-24T05:08:37.278Z,0
2016-11-24T05:09:17.832Z,0
2016-11-24T05:09:58.371Z,0
2016-11-24T05:10:38.921Z,0
2016-11-24T05:11:19.460Z,0
2016-11-24T05:11:59.990Z,0
2016-11-24T05:12:40.528Z,0
2016-11-24T05:13:21.069Z,0
2016-11-24T05:14:01.606Z,0
2016-11-24T05:14:42.144Z,0
2016-11-24T05:15:22.684Z,0
2016-11-24T05:16:03.223Z,0
2016-11-24T05:16:43.754Z,0
2016-11-24T05:17:24.291Z,0
2016-11-24T05:18:04.831Z,0
2016-11-24T05:18:45.372Z,0
2016-11-24T05:19:25.911Z,0
2016-11-24T05:20:06.448Z,0
2016-11-24T05:20:46.985Z,0
2016-11-24T05:21:27.530Z,0
2016-11-24T05:22:08.066Z,0
2016-11-24T05:22:48.612Z,0
2016-11-24T05:23:29.139Z,0
2016-11-24T05:24:09.679Z,0
2016-11-24T05:24:50.219Z,0
2016-11-24T05:25:30.759Z,0
2016-11-24T05:26:11.297Z,0
2016-11-24T05:26:51.841Z,0
2016-11-24T05:27:32.376Z,0
2016-11-24T05:28:12.915Z,0
2016-11-24T05:28:53.456Z,0
2016-11-24T05:29:33.994Z,0
2016-11-24T05:30:14.531Z,0
2016-11-24T05:30:55.059Z,0
2016-11-24T05:31:35.601Z,0
2016-11-24T05:32:16.142Z,0
2016-11-24T05:32:56.687Z,0
2016-11-24T05:33:37.224Z,0
2016-11-24T05:34:17.761Z,0
2016-11-24T05:34:58.299Z,0
2016-11-24T05:35:38.839Z,0
2016-11-24T05:36:19.379Z,0
2016-11-24T05:36:59.922Z,0
2016-11-24T05:37:40.460Z,0
2016-11-24T05:38:20.993Z,0
2016-11-24T05:39:01.540Z,0
2016-11-24T05:39:42.072Z,0
2016-11-24T05:40:22.611Z,0
2016-11-24T05:41:03.151Z,0
2016-11-24T05:41:43.692Z,0
2016-11-24T05:42:24.233Z,0
2016-11-24T05:43:04.770Z,0
2016-11-24T05:43:45.338Z,0
2016-11-24T05:44:25.885Z,0
2016-11-24T05:45:06.422Z,0
2016-11-24T05:45:46.972Z,0
2016-11-24T05:46:27.516Z,0
2016-11-24T05:47:08.061Z,0
2016-11-24T05:47:48.600Z,0
2016-11-24T05:48:29.138Z,0
2016-11-24T05:49:09.684Z,0
2016-11-24T05:49:50.244Z,0
2016-11-24T05:50:30.758Z,0
2016-11-24T05:51:11.297Z,0
2016-11-24T05:51:51.841Z,0
2016-11-24T05:52:32.378Z,0
2016-11-24T05:53:12.920Z,0
2016-11-24T05:53:53.457Z,0
2016-11-24T05:54:33.996Z,0
2016-11-24T05:55:14.537Z,0
2016-11-24T05:55:55.074Z,0
2016-11-24T05:56:35.617Z,0
2016-11-24T05:57:16.156Z,0
2016-11-24T05:57:56.688Z,0
2016-11-24T05:58:37.232Z,0
2016-11-24T05:59:17.777Z,0
2016-11-24T05:59:58.318Z,0
2016-11-24T06:00:38.874Z,0
2016-11-24T06:01:19.385Z,0
2016-11-24T06:01:59.922Z,0
2016-11-24T06:02:40.464Z,0
2016-11-24T06:03:21.007Z,0
2016-11-24T06:04:01.546Z,0
2016-11-24T06:04:42.092Z,0
2016-11-24T06:05:22.638Z,0
2016-11-24T06:06:03.178Z,0
2016-11-24T06:06:43.719Z,0
2016-11-24T06:07:24.255Z,0
2016-11-24T06:08:04.791Z,0
2016-11-24T06:08:45.346Z,0
2016-11-24T06:09:25.864Z,0
2016-11-24T06:10:06.408Z,0
2016-11-24T06:10:46.948Z,0
2016-11-24T06:11:27.496Z,0
2016-11-24T06:12:08.046Z,0
2016-11-24T06:12:48.578Z,0
2016-11-24T06:13:29.119Z,0
2016-11-24T06:14:09.660Z,0
2016-11-24T06:14:50.196Z,0
2016-11-24T06:15:30.732Z,0
2016-11-24T06:16:11.274Z,0
2016-11-24T06:16:51.813Z,0
2016-11-24T06:17:32.351Z,0
2016-11-24T06:18:12.897Z,0
2016-11-24T06:18:53.432Z,0
2016-11-24T06:19:33.979Z,0
2016-11-24T06:20:14.513Z,0
2016-11-24T06:20:55.046Z,0
2016-11-24T06:21:35.582Z,0
2016-11-24T06:22:16.120Z,0
2016-11-24T06:22:56.661Z,0
2016-11-24T06:23:37.206Z,0
2016-11-24T06:24:17.754Z,0
2016-11-24T06:24:58.297Z,0
2016-11-24T06:25:38.837Z,0
2016-11-24T06:26:19.398Z,0
2016-11-24T06:26:59.926Z,0
2016-11-24T06:27:40.461Z,0
2016-11-24T06:28:20.996Z,0
2016-11-24T06:29:01.536Z,0
2016-11-24T06:29:42.073Z,0
2016-11-24T06:30:22.610Z,0
2016-11-24T06:31:03.141Z,0
2016-11-24T06:31:43.672Z,0
2016-11-24T06:32:24.198Z,0
2016-11-24T06:33:04.728Z,0
2016-11-24T06:33:45.277Z,0
2016-11-24T06:34:25.813Z,0
2016-11-24T06:35:06.359Z,0
2016-11-24T06:35:46.904Z,0
2016-11-24T06:36:27.438Z,0
2016-11-24T06:37:07.974Z,0
2016-11-24T06:37:48.515Z,0
2016-11-24T06:38:29.060Z,0
2016-11-24T06:39:09.605Z,0
2016-11-24T06:39:50.140Z,0
2016-11-24T06:40:30.686Z,0
2016-11-24T06:41:11.221Z,0
2016-11-24T06:41:51.766Z,0
2016-11-24T06:42:32.300Z,0
2016-11-24T06:43:12.835Z,0
2016-11-24T06:43:53.367Z,0
2016-11-24T06:44:33.898Z,0
2016-11-24T06:45:14.434Z,0
2016-11-24T06:45:55.049Z,0
2016-11-24T06:46:35.584Z,0
2016-11-24T06:47:16.121Z,0
2016-11-24T06:47:56.658Z,0
2016-11-24T06:48:37.197Z,0
2016-11-24T06:49:17.729Z,0
2016-11-24T06:49:58.283Z,0
2016-11-24T06:50:38.822Z,0
2016-11-24T06:51:19.375Z,0
2016-11-24T06:51:59.912Z,0
2016-11-24T06:52:40.444Z,0
2016-11-24T06:53:20.976Z,0
2016-11-24T06:54:01.507Z,0
2016-11-24T06:54:42.047Z,0
2016-11-24T06:55:22.584Z,0
2016-11-24T06:56:03.114Z,0
2016-11-24T06:56:43.678Z,0
2016-11-24T06:57:24.217Z,0
2016-11-24T06:58:04.755Z,0
2016-11-24T06:58:45.320Z,0
2016-11-24T06:59:25.833Z,0
2016-11-24T07:00:06.373Z,0
2016-11-24T07:00:46.916Z,0
2016-11-24T07:01:27.454Z,0
2016-11-24T07:02:07.995Z,0
2016-11-24T07:02:48.537Z,5
2016-11-24T07:03:29.074Z,5
2016-11-24T07:04:09.609Z,5
2016-11-24T07:04:50.150Z,5
2016-11-24T07:05:30.680Z,5
2016-11-24T07:06:11.218Z,5
2016-11-24T07:06:51.761Z,5
2016-11-24T07:07:32.297Z,5
2016-11-24T07:08:12.845Z,5
2016-11-24T07:08:53.388Z,5
2016-11-24T07:09:33.942Z,5
2016-11-24T07:10:14.459Z,5
2016-11-24T07:10:55.001Z,5
2016-11-24T07:11:35.543Z,5
2016-11-24T07:12:16.086Z,10
2016-11-24T07:12:56.623Z,10
2016-11-24T07:13:37.171Z,10
2016-11-24T07:14:17.745Z,10
2016-11-24T07:14:58.269Z,10
2016-11-24T07:15:38.799Z,10
2016-11-24T07:16:19.349Z,10
2016-11-24T07:16:59.892Z,15
2016-11-24T07:17:40.435Z,15
2016-11-24T07:18:20.986Z,15
2016-11-24T07:19:01.524Z,15
2016-11-24T07:19:42.060Z,15
2016-11-24T07:20:22.598Z,15
2016-11-24T07:21:03.137Z,20
2016-11-24T07:21:43.676Z,20
2016-11-24T07:22:24.219Z,20
2016-11-24T07:23:04.763Z,20
2016-11-24T07:23:45.297Z,20
2016-11-24T07:24:25.862Z,20
2016-11-24T07:25:06.393Z,25
2016-11-24T07:25:46.944Z,25
2016-11-24T07:26:27.505Z,25
2016-11-24T07:27:08.057Z,25
2016-11-24T07:27:48.579Z,25
2016-11-24T07:28:29.114Z,30
2016-11-24T07:29:09.655Z,30
2016-11-24T07:29:50.190Z,30
2016-11-24T07:30:30.736Z,30
2016-11-24T07:31:11.269Z,30
2016-11-24T07:31:51.818Z,30
2016-11-24T07:32:32.363Z,30
2016-11-24T07:33:12.903Z,30
2016-11-24T07:33:53.449Z,30
2016-11-24T07:34:33.994Z,35
2016-11-24T07:35:14.514Z,35
2016-11-24T07:35:55.043Z,35
2016-11-24T07:36:35.590Z,35
2016-11-24T07:37:16.124Z,35
2016-11-24T07:37:56.659Z,35
2016-11-24T07:38:37.202Z,35
2016-11-24T07:39:17.738Z,40
2016-11-24T07:39:58.279Z,40
2016-11-24T07:40:38.813Z,40
2016-11-24T07:41:19.353Z,40
2016-11-24T07:41:59.895Z,40
2016-11-24T07:42:40.429Z,45
2016-11-24T07:43:20.977Z,45
2016-11-24T07:44:01.513Z,45
2016-11-24T07:44:42.060Z,45
2016-11-24T07:45:22.598Z,50
2016-11-24T07:46:03.132Z,50
2016-11-24T07:46:43.669Z,50
2016-11-24T07:47:24.206Z,50
2016-11-24T07:48:04.741Z,55
2016-11-24T07:48:45.281Z,55
2016-11-24T07:49:25.825Z,55
2016-11-24T07:50:06.373Z,55
2016-11-24T07:50:46.926Z,55
2016-11-24T07:51:27.485Z,60
2016-11-24T07:52:08.004Z,60
2016-11-24T07:52:48.540Z,60
2016-11-24T07:53:29.074Z,60
2016-11-24T07:54:09.607Z,60
2016-11-24T07:54:50.149Z,65
2016-11-24T07:55:30.687Z,65
2016-11-24T07:56:11.221Z,65
2016-11-24T07:56:51.772Z,65
2016-11-24T07:57:32.302Z,65
2016-11-24T07:58:12.860Z,70
2016-11-24T07:58:53.404Z,70
2016-11-24T07:59:33.944Z,70
2016-11-24T08:00:14.473Z,70
2016-11-24T08:00:55.014Z,75
2016-11-24T08:01:35.553Z,75
2016-11-24T08:02:16.094Z,75
2016-11-24T08:02:56.631Z,75
2016-11-24T08:03:37.193Z,80
2016-11-24T08:04:17.734Z,80
2016-11-24T08:04:58.288Z,80
2016-11-24T08:05:38.813Z,85
2016-11-24T08:06:19.341Z,85
2016-11-24T08:06:59.880Z,85
2016-11-24T08:07:40.418Z,90
2016-11-24T08:08:20.955Z,90
2016-11-24T08:09:01.487Z,95
2016-11-24T08:09:42.046Z,95
2016-11-24T08:10:22.586Z,100
2016-11-24T08:11:03.129Z,100
2016-11-24T08:11:43.668Z,100
2016-11-24T08:12:24.206Z,105
2016-11-24T08:13:04.744Z,105
2016-11-24T08:13:45.282Z,110
2016-11-24T08:14:25.824Z,110
2016-11-24T08:15:06.364Z,110
2016-11-24T08:15:46.903Z,115
2016-11-24T08:16:27.451Z,115
2016-11-24T08:17:07.990Z,115
2016-11-24T08:17:48.522Z,115
2016-11-24T08:18:29.060Z,115
2016-11-24T08:19:09.599Z,115
2016-11-24T08:19:50.136Z,110
2016-11-24T08:20:30.677Z,110
2016-11-24T08:21:11.213Z,105
2016-11-24T08:21:51.758Z,105
2016-11-24T08:22:32.299Z,100
2016-11-24T08:23:12.835Z,100
2016-11-24T08:23:53.396Z,100
2016-11-24T08:24:33.927Z,100
2016-11-24T08:25:14.465Z,100
2016-11-24T08:25:55.006Z,100
2016-11-24T08:26:35.546Z,100
2016-11-24T08:27:16.083Z,100
2016-11-24T08:27:56.621Z,105
2016-11-24T08:28:37.162Z,105
2016-11-24T08:29:17.706Z,105
2016-11-24T08:29:58.244Z,110
2016-11-24T08:30:38.787Z,110
2016-11-24T08:31:19.314Z,110
2016-11-24T08:31:59.852Z,115
2016-11-24T08:32:40.390Z,115
2016-11-24T08:33:20.933Z,110
2016-11-24T08:34:01.475Z,115
2016-11-24T08:34:42.016Z,115
2016-11-24T08:35:22.556Z,115
2016-11-24T08:36:03.108Z,125
2016-11-24T08:36:43.644Z,140
2016-11-24T08:37:24.189Z,145
2016-11-24T08:38:04.728Z,145
2016-11-24T08:38:45.271Z,150
2016-11-24T08:39:25.807Z,150
2016-11-24T08:40:06.349Z,150
2016-11-24T08:40:46.897Z,150
2016-11-24T08:41:27.438Z,150
2016-11-24T08:42:07.984Z,150
2016-11-24T08:42:48.530Z,150
2016-11-24T08:43:29.066Z,175
2016-11-24T08:44:09.615Z,165
2016-11-24T08:44:50.170Z,150
2016-11-24T08:45:30.702Z,150
2016-11-24T08:46:11.226Z,180
2016-11-24T08:46:51.768Z,170
2016-11-24T08:47:32.309Z,190
2016-11-24T08:48:12.856Z,190
2016-11-24T08:48:53.394Z,175
2016-11-24T08:49:33.942Z,160
2016-11-24T08:50:14.475Z,145
2016-11-24T08:50:55.020Z,155
2016-11-24T08:51:35.560Z,170
2016-11-24T08:52:16.101Z,170
2016-11-24T08:52:56.635Z,200
2016-11-24T08:53:37.179Z,190
2016-11-24T08:54:17.719Z,210
2016-11-24T08:54:58.261Z,190
2016-11-24T08:55:38.839Z,170
2016-11-24T08:56:19.385Z,180
2016-11-24T08:56:59.924Z,175
2016-11-24T08:57:40.463Z,170
2016-11-24T08:58:21.001Z,165
2016-11-24T08:59:01.544Z,165
2016-11-24T08:59:42.087Z,170
2016-11-24T09:00:22.632Z,175
2016-11-24T09:01:03.160Z,180
2016-11-24T09:01:43.699Z,185
2016-11-24T09:02:24.240Z,190
2016-11-24T09:03:04.781Z,195
2016-11-24T09:03:45.324Z,195
2016-11-24T09:04:25.857Z,195
2016-11-24T09:05:06.404Z,195
2016-11-24T09:05:46.941Z,190
2016-11-24T09:06:27.486Z,190
2016-11-24T09:07:08.027Z,205
2016-11-24T09:07:48.570Z,200
2016-11-24T09:08:29.109Z,185
2016-11-24T09:09:09.637Z,190
2016-11-24T09:09:50.180Z,180
2016-11-24T09:10:30.717Z,175
2016-11-24T09:11:11.262Z,180
2016-11-24T09:11:51.802Z,175
2016-11-24T09:12:32.340Z,200
2016-11-24T09:13:12.882Z,230
2016-11-24T09:13:53.424Z,250
2016-11-24T09:14:33.964Z,250
2016-11-24T09:15:14.503Z,285
2016-11-24T09:15:55.106Z,290
2016-11-24T09:16:35.647Z,300
2016-11-24T09:17:16.185Z,300
2016-11-24T09:17:56.730Z,265
2016-11-24T09:18:37.269Z,215
2016-11-24T09:19:17.797Z,200
2016-11-24T09:19:58.338Z,205
2016-11-24T09:20:38.875Z,200
2016-11-24T09:21:19.423Z,190
2016-11-24T09:21:59.981Z,190
2016-11-24T09:22:40.518Z,200
2016-11-24T09:23:21.055Z,220
2016-11-24T09:24:01.605Z,370
2016-11-24T09:24:42.144Z,390
2016-11-24T09:25:22.688Z,335
2016-11-24T09:26:03.233Z,340
2016-11-24T09:26:43.775Z,330
2016-11-24T09:27:24.317Z,445
2016-11-24T09:28:04.859Z,435
2016-11-24T09:28:45.396Z,480
2016-11-24T09:29:25.934Z,545
2016-11-24T09:30:06.495Z,660
2016-11-24T09:30:47.033Z,680
2016-11-24T09:31:27.580Z,810
2016-11-24T09:32:08.133Z,620
2016-11-24T09:32:48.678Z,665
2016-11-24T09:33:29.223Z,540
2016-11-24T09:34:09.763Z,555
2016-11-24T09:34:50.303Z,480
2016-11-24T09:35:30.842Z,520
2016-11-24T09:36:11.384Z,555
2016-11-24T09:36:51.915Z,600
2016-11-24T09:37:32.459Z,670
2016-11-24T09:38:13.006Z,770
2016-11-24T09:38:53.554Z,860
2016-11-24T09:39:34.103Z,880
2016-11-24T09:40:14.653Z,920
2016-11-24T09:40:55.178Z,925
2016-11-24T09:41:35.746Z,915
2016-11-24T09:42:16.301Z,905
2016-11-24T09:42:56.846Z,925
2016-11-24T09:43:37.394Z,935
2016-11-24T09:44:17.943Z,945
2016-11-24T09:44:58.491Z,950
2016-11-24T09:45:39.025Z,960
2016-11-24T09:46:19.589Z,980
2016-11-24T09:47:00.135Z,980
2016-11-24T09:47:40.681Z,1000
2016-11-24T09:48:21.227Z,1010
2016-11-24T09:49:01.771Z,1005
2016-11-24T09:49:42.319Z,1015
2016-11-24T09:50:22.867Z,1010
2016-11-24T09:51:03.413Z,1020
2016-11-24T09:51:43.960Z,1015
2016-11-24T09:52:24.503Z,995
2016-11-24T09:53:05.051Z,990
2016-11-24T09:53:45.596Z,1000
2016-11-24T09:54:26.143Z,1030
2016-11-24T09:55:06.691Z,1045
2016-11-24T09:55:47.233Z,950
2016-11-24T09:56:27.780Z,835
2016-11-24T09:57:08.334Z,925
2016-11-24T09:57:48.876Z,990
2016-11-24T09:58:29.429Z,1005
2016-11-24T09:59:09.977Z,1045
2016-11-24T09:59:50.526Z,1065
2016-11-24T10:00:31.078Z,1055
2016-11-24T10:01:11.631Z,1055
2016-11-24T10:01:52.184Z,1050
2016-11-24T10:02:32.725Z,1025
2016-11-24T10:03:13.274Z,1035
2016-11-24T10:03:53.824Z,1035
2016-11-24T10:04:34.375Z,890
2016-11-24T10:05:14.926Z,835
2016-11-24T10:05:55.471Z,655
2016-11-24T10:06:36.018Z,525
2016-11-24T10:07:16.566Z,430
2016-11-24T10:07:57.106Z,360
2016-11-24T10:08:37.666Z,310
2016-11-24T10:09:18.217Z,305
2016-11-24T10:09:58.768Z,285
2016-11-24T10:10:39.318Z,270
2016-11-24T10:11:19.866Z,265
2016-11-24T10:12:00.412Z,275
2016-11-24T10:12:40.957Z,300
2016-11-24T10:13:21.498Z,375
2016-11-24T10:14:02.046Z,430
2016-11-24T10:14:42.587Z,635
2016-11-24T10:15:23.130Z,810
2016-11-24T10:16:03.680Z,875
2016-11-24T10:16:44.220Z,540
2016-11-24T10:17:24.767Z,440
2016-11-24T10:18:05.312Z,470
2016-11-24T10:18:45.857Z,450
2016-11-24T10:19:26.401Z,495
2016-11-24T10:20:06.951Z,720
2016-11-24T10:20:47.492Z,730
2016-11-24T10:21:28.051Z,625
2016-11-24T10:22:08.590Z,585
2016-11-24T10:22:49.141Z,570
2016-11-24T10:23:29.692Z,565
2016-11-24T10:24:10.238Z,560
2016-11-24T10:24:50.786Z,555
2016-11-24T10:25:31.341Z,560
2016-11-24T10:26:11.880Z,565
2016-11-24T10:26:52.432Z,565
2016-11-24T10:27:32.973Z,575
2016-11-24T10:28:13.515Z,570
2016-11-24T10:28:54.063Z,565
2016-11-24T10:29:34.605Z,570
2016-11-24T10:30:15.163Z,565